Time;durP1;ratioP1;P1;durP2;ratioP2;P2;SDS_P1;SDS_P2;PMS_P1;PMS_P2;Temp;Humidity;BMP_temperature;BMP_pressure;BME280_temperature;BME280_humidity;BME280_pressure;Samples;Min_cycle;Max_cycle;Signal;HPM_P1;HPM_P2
2021/09/15 00:01:18;;;;;;;2.17;1.07;;;;;;;12.24;71.29;99899.70;1702315;82;21054;-52
2021/09/15 00:03:45;;;;;;;2.47;1.02;;;;;;;12.21;71.34;99902.55;1705626;82;21503;-52
2021/09/15 00:06:13;;;;;;;1.45;1.00;;;;;;;12.19;71.50;99900.40;1704669;82;21363;-52
2021/09/15 00:08:39;;;;;;;3.52;1.20;;;;;;;12.16;71.70;99900.11;1657157;84;21643;-52
2021/09/15 00:11:07;;;;;;;1.85;1.12;;;;;;;12.16;71.71;99900.58;1651195;85;21561;-52
2021/09/15 00:13:34;;;;;;;1.20;0.90;;;;;;;12.14;71.75;99910.09;1651778;84;21392;-52
2021/09/15 00:16:03;;;;;;;1.70;1.02;;;;;;;12.12;71.86;99904.78;1649194;85;21489;-52
2021/09/15 00:18:29;;;;;;;2.83;1.40;;;;;;;12.12;71.78;99910.65;1651313;85;21549;-52
2021/09/15 00:20:57;;;;;;;3.27;1.10;;;;;;;12.09;71.73;99909.45;1652660;85;21567;-52
2021/09/15 00:23:24;;;;;;;1.92;1.05;;;;;;;12.07;71.75;99908.20;1652351;85;22353;-52
2021/09/15 00:25:50;;;;;;;2.45;1.42;;;;;;;12.04;71.72;99915.09;1654085;85;21095;-52
2021/09/15 00:28:17;;;;;;;4.53;1.00;;;;;;;12.01;71.54;99917.06;1649223;85;21109;-52
2021/09/15 00:30:43;;;;;;;1.60;1.15;;;;;;;11.98;71.53;99919.94;1651667;85;21133;-52
2021/09/15 00:33:09;;;;;;;1.30;1.00;;;;;;;11.95;71.53;99916.91;1651959;85;21122;-52
2021/09/15 00:35:36;;;;;;;2.45;0.90;;;;;;;11.94;71.58;99920.56;1654949;84;22071;-52
2021/09/15 00:38:02;;;;;;;2.62;1.20;;;;;;;11.91;71.49;99920.70;1683557;84;22581;-52
2021/09/15 00:40:28;;;;;;;2.27;1.02;;;;;;;11.88;71.57;99920.00;1672792;84;21168;-53
2021/09/15 00:42:56;;;;;;;5.85;1.72;;;;;;;11.87;71.62;99915.56;1684916;83;21052;-52
2021/09/15 00:45:24;;;;;;;1.80;1.10;;;;;;;11.85;71.65;99925.08;1681176;82;21084;-52
2021/09/15 00:47:50;;;;;;;2.05;1.20;;;;;;;11.84;71.72;99913.88;1672191;84;21125;-52
2021/09/15 00:50:19;;;;;;;1.52;0.82;;;;;;;11.83;71.65;99922.92;1654491;85;20927;-52
2021/09/15 00:52:46;;;;;;;1.50;1.30;;;;;;;11.81;71.61;99927.55;1684494;83;21076;-52
2021/09/15 00:55:12;;;;;;;1.35;1.12;;;;;;;11.78;71.59;99927.69;1673121;84;21119;-51
2021/09/15 00:57:39;;;;;;;1.45;0.90;;;;;;;11.73;71.54;99925.20;1661526;83;21072;-51
2021/09/15 01:00:08;;;;;;;1.85;0.90;;;;;;;11.68;71.52;99930.41;1669414;83;21138;-52
2021/09/15 01:02:35;;;;;;;1.65;0.90;;;;;;;11.62;71.50;99922.16;1672093;84;21034;-52
2021/09/15 01:05:08;;;;;;;1.90;1.20;;;;;;;11.60;71.48;99929.91;1670688;84;21635;-52
2021/09/15 01:07:36;;;;;;;1.90;1.10;;;;;;;11.59;71.50;99926.81;1670159;84;21510;-52
2021/09/15 01:10:05;;;;;;;2.42;1.20;;;;;;;11.56;71.44;99930.56;1667853;84;21077;-52
2021/09/15 01:12:34;;;;;;;1.52;0.98;;;;;;;11.55;71.37;99929.28;1672017;84;21073;-51
2021/09/15 01:15:20;;;;;;;1.82;1.20;;;;;;;11.51;71.25;99931.24;1668180;84;21098;-53
2021/09/15 01:18:17;;;;;;;4.30;1.05;;;;;;;11.45;71.14;99930.67;1671315;84;21822;-52
2021/09/15 01:21:09;;;;;;;2.15;1.12;;;;;;;11.39;71.12;99935.91;1671470;84;21119;-52
2021/09/15 01:23:38;;;;;;;1.42;0.95;;;;;;;11.31;71.31;99935.41;1668495;84;21491;-51
2021/09/15 01:26:23;;;;;;;3.95;0.90;;;;;;;11.25;71.55;99935.67;1680049;83;21146;-52
2021/09/15 01:28:52;;;;;;;2.80;0.98;;;;;;;11.23;71.59;99936.21;1651639;84;21677;-52
2021/09/15 01:31:21;;;;;;;1.90;0.98;;;;;;;11.22;71.50;99938.06;1655618;85;21177;-52
2021/09/15 01:33:49;;;;;;;4.25;1.07;;;;;;;11.23;71.47;99936.21;1655570;85;21090;-51
2021/09/15 01:36:17;;;;;;;5.25;1.17;;;;;;;11.22;71.64;99938.54;1636948;86;21170;-52
2021/09/15 01:38:45;;;;;;;2.80;1.17;;;;;;;11.22;71.73;99942.11;1670019;83;21299;-52
2021/09/15 01:41:11;;;;;;;1.87;1.10;;;;;;;11.20;71.68;99933.22;1668695;84;21065;-52
2021/09/15 01:43:39;;;;;;;3.25;1.35;;;;;;;11.16;71.53;99934.30;1669336;84;21131;-52
2021/09/15 01:48:47;;;;;;;4.23;1.10;;;;;;;11.08;71.37;99931.09;1863809;75;22643;-53
2021/09/15 01:51:13;;;;;;;2.08;0.80;;;;;;;10.99;71.28;99932.40;1825829;77;21037;-54
2021/09/15 01:53:39;;;;;;;4.67;0.93;;;;;;;10.96;71.18;99935.73;1828092;77;21220;-54
2021/09/15 01:56:06;;;;;;;1.52;0.85;;;;;;;10.92;71.17;99932.77;1833112;77;20911;-53
2021/09/15 01:58:54;;;;;;;1.20;1.10;;;;;;;10.89;71.09;99928.86;1832621;77;20914;-52
2021/09/15 02:01:27;;;;;;;5.42;1.10;;;;;;;10.84;71.02;99933.59;1823709;76;21158;-54
2021/09/15 02:03:56;;;;;;;2.62;0.90;;;;;;;10.80;71.12;99938.73;1827903;77;21074;-54
2021/09/15 02:06:30;;;;;;;2.47;1.00;;;;;;;10.78;71.10;99939.27;1823268;77;21540;-53
2021/09/15 02:09:00;;;;;;;1.52;1.10;;;;;;;10.76;71.02;99943.84;1824226;76;21261;-54
2021/09/15 02:11:38;;;;;;;2.60;1.07;;;;;;;10.70;71.08;99939.63;1825264;76;21030;-53
2021/09/15 02:14:06;;;;;;;2.25;1.20;;;;;;;10.67;70.97;99945.14;1832680;77;20859;-53
2021/09/15 02:16:33;;;;;;;4.47;1.27;;;;;;;10.63;70.96;99942.67;1831282;77;20878;-54
2021/09/15 02:19:02;;;;;;;5.90;1.57;;;;;;;10.58;71.10;99941.52;1830524;76;20883;-54
2021/09/15 02:21:34;;;;;;;8.10;1.17;;;;;;;10.53;71.13;99944.43;1825605;77;20939;-54
2021/09/15 02:24:06;;;;;;;2.05;1.20;;;;;;;10.52;71.24;99949.41;1834716;77;20878;-54
2021/09/15 02:26:34;;;;;;;3.52;1.00;;;;;;;10.49;71.37;99946.84;1827778;76;20929;-53
2021/09/15 02:29:03;;;;;;;2.47;0.90;;;;;;;10.49;71.31;99946.84;1831602;77;21479;-54
2021/09/15 02:31:43;;;;;;;2.40;0.90;;;;;;;10.49;71.33;99944.62;1818039;77;21074;-52
2021/09/15 02:34:28;;;;;;;1.70;1.30;;;;;;;10.47;71.21;99947.84;1804625;77;21400;-54
2021/09/15 02:36:59;;;;;;;3.02;1.30;;;;;;;10.46;71.32;99945.63;1796562;77;21362;-54
2021/09/15 02:39:27;;;;;;;4.15;1.75;;;;;;;10.45;71.18;99949.75;1800710;77;20986;-54
2021/09/15 02:41:56;;;;;;;2.83;1.12;;;;;;;10.42;71.12;99954.79;1804284;77;21046;-54
2021/09/15 02:44:26;;;;;;;3.00;1.40;;;;;;;10.39;71.15;99957.60;1800163;77;21484;-53
2021/09/15 02:47:00;;;;;;;4.03;1.35;;;;;;;10.37;71.05;99960.86;1788500;77;21643;-53
2021/09/15 02:49:45;;;;;;;;;;;;;;;10.31;70.93;99958.88;1803159;77;21055;-54
2021/09/15 02:52:30;;;;;;;1.50;1.10;;;;;;;10.23;71.06;99961.44;1805107;77;21073;-53
2021/09/15 02:55:17;;;;;;;1.35;0.90;;;;;;;10.18;71.17;99961.25;1799548;77;21235;-52
2021/09/15 02:57:44;;;;;;;3.20;0.85;;;;;;;10.13;71.21;99969.47;1799882;77;21165;-53
2021/09/15 03:00:14;;;;;;;1.40;1.10;;;;;;;10.09;71.23;99969.21;1795861;77;21047;-54
2021/09/15 03:02:45;;;;;;;2.45;1.12;;;;;;;10.08;71.30;99969.27;1802004;77;20907;-52
2021/09/15 03:05:31;;;;;;;4.53;1.10;;;;;;;10.06;71.26;99970.67;1800680;77;21713;-53
2021/09/15 03:08:08;;;;;;;3.22;0.90;;;;;;;10.05;71.31;99968.92;1794540;77;21085;-52
2021/09/15 03:10:36;;;;;;;3.33;1.57;;;;;;;10.06;71.45;99969.80;1796875;77;21015;-52
2021/09/15 03:13:03;;;;;;;3.87;1.20;;;;;;;10.07;71.35;99971.55;1761932;79;21123;-54
2021/09/15 03:15:30;;;;;;;2.12;1.62;;;;;;;10.07;71.26;99969.73;1799701;77;21034;-53
2021/09/15 03:17:57;;;;;;;3.20;1.20;;;;;;;10.07;71.30;99976.93;1802857;77;20884;-52
2021/09/15 03:22:43;;;;;;;1.93;1.30;;;;;;;10.08;71.35;99971.96;1788649;77;22607;-51
2021/09/15 03:25:10;;;;;;;1.62;1.10;;;;;;;10.00;71.38;99972.29;1760069;78;21360;-51
2021/09/15 03:27:39;;;;;;;6.72;1.30;;;;;;;9.97;71.36;99976.91;1761870;78;21148;-53
2021/09/15 03:30:07;;;;;;;2.22;1.00;;;;;;;9.93;71.46;99975.30;1765004;79;20898;-53
2021/09/15 03:32:34;;;;;;;2.00;1.20;;;;;;;9.91;71.52;99971.80;1745102;79;20933;-52
2021/09/15 03:35:00;;;;;;;2.10;1.00;;;;;;;9.90;71.46;99978.98;1732948;79;20895;-53
2021/09/15 03:37:27;;;;;;;1.87;1.22;;;;;;;9.88;71.46;99976.83;1729792;79;20890;-51
2021/09/15 03:39:53;;;;;;;5.83;1.00;;;;;;;9.83;71.38;99981.06;1732153;79;21787;-52
2021/09/15 03:42:21;;;;;;;4.58;1.57;;;;;;;9.82;71.33;99980.66;1730677;79;20950;-52
2021/09/15 03:44:48;;;;;;;1.57;1.22;;;;;;;9.80;71.41;99985.21;1709193;79;21048;-51
2021/09/15 03:47:15;;;;;;;2.17;1.40;;;;;;;9.80;71.50;99980.30;1728329;79;21072;-53
2021/09/15 03:49:42;;;;;;;4.55;1.20;;;;;;;9.79;71.29;99986.15;1730312;79;21083;-51
2021/09/15 03:52:09;;;;;;;3.67;1.47;;;;;;;9.76;71.20;99988.98;1727723;79;21115;-51
2021/09/15 03:54:38;;;;;;;4.60;1.50;;;;;;;9.75;71.08;99990.38;1733470;79;21764;-51
2021/09/15 03:57:06;;;;;;;1.90;1.20;;;;;;;9.70;71.13;99983.84;1731245;79;21021;-51
2021/09/15 03:59:34;;;;;;;1.98;1.35;;;;;;;9.66;71.29;99982.70;1706309;79;21061;-51
2021/09/15 04:02:03;;;;;;;2.67;1.25;;;;;;;9.64;71.28;99988.13;1706774;79;20996;-52
2021/09/15 04:04:31;;;;;;;1.62;1.20;;;;;;;9.62;71.40;99983.73;1730797;79;21080;-52
2021/09/15 04:06:57;;;;;;;3.17;1.15;;;;;;;9.62;71.58;99989.99;1729745;79;21057;-52
2021/09/15 04:09:26;;;;;;;1.30;1.00;;;;;;;9.64;71.67;99989.47;1728648;79;21081;-53
2021/09/15 04:11:52;;;;;;;1.40;1.30;;;;;;;9.66;71.81;99990.76;1729652;79;21100;-53
2021/09/15 04:14:22;;;;;;;2.10;1.20;;;;;;;9.68;71.91;99992.92;1730221;79;21406;-53
2021/09/15 04:16:49;;;;;;;1.40;1.10;;;;;;;9.70;71.93;99994.59;1731259;79;21105;-52
2021/09/15 04:19:16;;;;;;;3.60;0.90;;;;;;;9.73;72.00;99999.85;1730837;79;20903;-51
2021/09/15 04:21:43;;;;;;;4.83;1.37;;;;;;;9.76;72.02;99998.86;1726022;79;21065;-53
2021/09/15 04:31:14;;;;;;;;;;;;;;;9.83;72.39;100001.23;1717832;80;23348;-51
2021/09/15 04:32:10;;;;;;;3.52;1.20;;;;;;;9.88;72.45;100008.62;1718265;80;20122;-52
2021/09/15 04:34:38;;;;;;;3.02;1.07;;;;;;;9.94;72.61;100010.67;1719197;80;21400;-53
2021/09/15 04:37:05;;;;;;;3.85;1.40;;;;;;;10.02;72.81;100009.87;1719093;80;22595;-53
2021/09/15 04:39:33;;;;;;;1.67;1.00;;;;;;;10.15;72.85;100014.66;1715007;80;21292;-54
2021/09/15 04:42:00;;;;;;;4.90;1.22;;;;;;;10.29;72.68;100007.41;1714448;80;21760;-52
2021/09/15 04:44:27;;;;;;;2.40;1.20;;;;;;;10.40;72.61;100009.14;1718738;80;21546;-51
2021/09/15 04:46:54;;;;;;;1.85;1.30;;;;;;;10.50;72.52;100006.92;1717418;80;21171;-52
2021/09/15 04:49:20;;;;;;;2.22;1.30;;;;;;;10.56;72.47;100005.30;1714897;80;21109;-52
2021/09/15 04:51:48;;;;;;;1.82;1.05;;;;;;;10.59;72.38;100016.83;1708224;80;21054;-53
2021/09/15 04:54:15;;;;;;;2.60;1.40;;;;;;;10.63;72.40;100011.31;1723152;80;21823;-52
2021/09/15 04:56:42;;;;;;;2.27;1.65;;;;;;;10.67;72.41;100016.48;1714892;80;21104;-53
2021/09/15 04:59:09;;;;;;;3.30;1.20;;;;;;;10.71;72.48;100017.23;1716641;80;21049;-51
2021/09/15 05:01:36;;;;;;;1.50;1.12;;;;;;;10.74;72.62;100011.22;1720788;80;20883;-52
2021/09/15 05:04:02;;;;;;;4.30;1.37;;;;;;;10.83;72.80;100018.89;1723022;80;20966;-52
2021/09/15 05:06:29;;;;;;;4.22;1.25;;;;;;;10.91;72.91;100022.58;1719442;80;21679;-51
2021/09/15 05:08:55;;;;;;;4.50;1.45;;;;;;;11.00;73.09;100020.34;1714074;80;21089;-52
2021/09/15 05:11:23;;;;;;;2.47;1.02;;;;;;;11.11;73.28;100026.59;1716717;80;22406;-53
2021/09/15 05:13:52;;;;;;;2.58;1.75;;;;;;;11.25;73.66;100023.25;1717361;80;21564;-52
2021/09/15 05:16:20;;;;;;;2.08;1.60;;;;;;;11.40;73.85;100029.77;1714120;80;21113;-53
2021/09/15 05:18:48;;;;;;;7.60;2.83;;;;;;;11.52;74.00;100031.39;1720187;80;21136;-52
2021/09/15 05:21:16;;;;;;;3.30;2.65;;;;;;;11.63;74.15;100030.87;1716731;80;21042;-53
2021/09/15 05:23:42;;;;;;;3.45;3.15;;;;;;;11.73;74.30;100036.23;1717002;82;21108;-53
2021/09/15 05:26:10;;;;;;;3.83;2.47;;;;;;;11.83;74.55;100039.37;1700546;82;21066;-52
2021/09/15 05:28:37;;;;;;;3.22;2.00;;;;;;;11.94;74.74;100041.08;1716931;82;21070;-51
2021/09/15 05:31:04;;;;;;;4.28;2.00;;;;;;;12.07;75.03;100041.77;1717586;82;22191;-50
2021/09/15 05:33:31;;;;;;;2.75;1.90;;;;;;;12.21;75.20;100044.23;1716978;82;21057;-53
2021/09/15 05:35:58;;;;;;;5.75;1.95;;;;;;;12.33;75.26;100052.59;1725265;82;20934;-54
2021/09/15 05:38:24;;;;;;;4.97;2.10;;;;;;;12.49;75.19;100049.98;1720061;80;20962;-54
2021/09/15 05:40:59;;;;;;;6.30;1.65;;;;;;;12.63;75.19;100051.48;1719980;82;20990;-51
2021/09/15 05:43:25;;;;;;;5.70;2.42;;;;;;;12.79;75.08;100055.61;1718437;82;21082;-51
2021/09/15 05:45:51;;;;;;;4.28;2.22;;;;;;;12.91;74.92;100047.34;1719726;82;21071;-52
2021/09/15 05:48:18;;;;;;;2.83;1.90;;;;;;;13.03;74.63;100050.25;1719248;82;21077;-50
2021/09/15 05:50:44;;;;;;;4.53;1.85;;;;;;;13.16;74.24;100054.09;1720369;82;21061;-52
2021/09/15 05:53:12;;;;;;;4.85;1.17;;;;;;;13.28;73.77;100053.89;1719135;82;21149;-54
2021/09/15 05:55:40;;;;;;;2.47;1.35;;;;;;;13.39;73.12;100047.90;1718579;82;21128;-52
2021/09/15 05:58:06;;;;;;;6.83;1.40;;;;;;;13.49;72.08;100051.38;1719989;82;21069;-54
2021/09/15 06:00:32;;;;;;;6.45;1.47;;;;;;;13.57;71.09;100052.30;1722423;80;20946;-54
2021/09/15 06:03:03;;;;;;;3.12;1.40;;;;;;;13.62;71.08;100055.60;1728795;82;20899;-53
2021/09/15 06:05:39;;;;;;;2.15;1.07;;;;;;;13.69;70.83;100058.38;1693172;82;21121;-53
2021/09/15 06:08:06;;;;;;;3.05;1.10;;;;;;;13.77;70.57;100053.89;1721837;82;21095;-52
2021/09/15 06:10:32;;;;;;;4.20;1.10;;;;;;;13.87;70.07;100055.09;1718877;82;21074;-52
2021/09/15 06:13:00;;;;;;;3.85;1.40;;;;;;;14.04;68.76;100050.94;1718325;82;21412;-52
2021/09/15 06:15:26;;;;;;;8.38;1.52;;;;;;;14.13;68.66;100049.53;1719287;82;22709;-52
2021/09/15 06:17:55;;;;;;;2.27;1.10;;;;;;;14.13;68.66;100049.53;1722801;82;21002;-52
2021/09/15 06:20:21;;;;;;;1.90;1.22;;;;;;;14.21;68.38;100056.73;1717491;82;21693;-51
2021/09/15 06:22:55;;;;;;;4.00;1.20;;;;;;;14.29;68.00;100053.96;1714312;80;21089;-51
2021/09/15 06:25:27;;;;;;;3.77;1.00;;;;;;;14.41;67.38;100056.48;1716686;80;21069;-52
2021/09/15 06:27:55;;;;;;;3.83;0.80;;;;;;;14.48;66.37;100048.85;1718263;80;21066;-52
2021/09/15 06:30:22;;;;;;;2.15;0.90;;;;;;;14.56;64.43;100054.20;1719889;80;21085;-52
2021/09/15 06:32:50;;;;;;;6.20;2.02;;;;;;;14.61;62.99;100059.36;1722878;80;21341;-51
2021/09/15 06:35:16;;;;;;;2.92;1.82;;;;;;;14.67;61.86;100057.63;1703334;80;20884;-53
2021/09/15 06:37:44;;;;;;;5.42;1.20;;;;;;;14.72;61.05;100064.51;1719784;80;21417;-50
2021/09/15 06:40:11;;;;;;;3.17;0.90;;;;;;;14.76;60.65;100065.20;1723248;80;20950;-53
2021/09/15 06:42:38;;;;;;;5.42;0.70;;;;;;;14.82;59.76;100063.95;1722641;80;20962;-51
2021/09/15 06:45:05;;;;;;;8.28;0.70;;;;;;;14.88;59.35;100067.67;1721862;80;21468;-52
2021/09/15 06:47:31;;;;;;;1.00;0.60;;;;;;;14.95;59.07;100067.20;1719261;80;20911;-51
2021/09/15 06:49:59;;;;;;;1.15;0.60;;;;;;;15.03;58.71;100071.66;1703889;80;20879;-52
2021/09/15 06:52:25;;;;;;;1.95;0.70;;;;;;;15.10;57.99;100073.03;1720962;80;20962;-52
2021/09/15 06:54:54;;;;;;;4.22;0.70;;;;;;;15.18;57.17;100070.31;1722197;80;20927;-52
2021/09/15 06:57:21;;;;;;;2.98;0.70;;;;;;;15.23;56.57;100077.19;1717552;80;21575;-52
2021/09/15 06:59:47;;;;;;;3.27;0.50;;;;;;;15.29;55.72;100076.83;1716948;80;21138;-51
2021/09/15 07:02:14;;;;;;;3.67;0.70;;;;;;;15.35;55.45;100083.70;1717104;80;21202;-51
2021/09/15 07:04:40;;;;;;;4.45;0.55;;;;;;;15.40;55.84;100075.66;1718217;80;21046;-52
2021/09/15 07:07:08;;;;;;;2.42;0.60;;;;;;;15.49;55.18;100082.34;1718462;80;21101;-52
2021/09/15 07:09:35;;;;;;;3.47;0.50;;;;;;;15.55;54.29;100079.78;1720254;80;21158;-53
2021/09/15 07:12:01;;;;;;;2.35;0.50;;;;;;;15.61;54.43;100080.73;1720710;80;21626;-51
2021/09/15 07:14:27;;;;;;;1.05;0.60;;;;;;;15.67;54.53;100076.27;1714197;80;21053;-53
2021/09/15 07:16:55;;;;;;;1.90;0.60;;;;;;;15.73;53.90;100079.97;1717331;80;21129;-53
2021/09/15 07:19:22;;;;;;;3.10;0.60;;;;;;;15.78;53.35;100072.39;1718874;80;21093;-53
2021/09/15 07:21:50;;;;;;;10.95;0.70;;;;;;;15.82;53.09;100072.07;1721555;80;21313;-51
2021/09/15 07:24:18;;;;;;;5.12;0.50;;;;;;;15.87;51.99;100077.22;1721640;81;21275;-51
2021/09/15 07:26:45;;;;;;;1.87;0.60;;;;;;;15.91;51.61;100072.48;1724052;80;21606;-54
2021/09/15 07:29:11;;;;;;;1.90;0.50;;;;;;;15.94;51.54;100066.34;1730393;82;20998;-51
2021/09/15 07:31:38;;;;;;;0.85;0.50;;;;;;;15.99;51.04;100074.20;1720775;82;21618;-52
2021/09/15 07:34:05;;;;;;;2.15;0.55;;;;;;;16.00;50.80;100070.01;1721035;82;21603;-53
2021/09/15 07:36:36;;;;;;;1.22;0.60;;;;;;;16.02;50.92;100063.13;1721348;82;21041;-54
2021/09/15 07:39:03;;;;;;;1.10;0.50;;;;;;;16.00;50.33;100065.06;1722710;82;21409;-51
2021/09/15 07:41:29;;;;;;;3.58;0.80;;;;;;;16.00;50.53;100058.27;1717867;82;22219;-53
2021/09/15 07:43:56;;;;;;;1.45;0.50;;;;;;;16.05;50.93;100057.02;1719081;82;21088;-54
2021/09/15 07:46:22;;;;;;;0.78;0.50;;;;;;;16.12;51.12;100054.28;1718880;82;21081;-53
2021/09/15 07:48:49;;;;;;;3.15;0.50;;;;;;;16.18;50.79;100055.70;1720014;82;21100;-52
2021/09/15 07:51:16;;;;;;;3.22;0.62;;;;;;;16.21;50.61;100052.31;1726027;81;21320;-51
2021/09/15 07:53:42;;;;;;;3.42;0.47;;;;;;;16.29;50.53;100058.59;1718744;82;21037;-53
2021/09/15 07:56:09;;;;;;;1.75;0.60;;;;;;;16.37;50.67;100053.52;1720273;80;21354;-50
2021/09/15 07:58:36;;;;;;;1.22;0.50;;;;;;;16.45;50.48;100055.70;1716511;82;22705;-52
2021/09/15 08:01:02;;;;;;;0.88;0.50;;;;;;;16.52;49.91;100055.67;1722119;82;21544;-53
2021/09/15 08:03:29;;;;;;;1.67;0.47;;;;;;;16.56;49.61;100048.58;1724220;82;20927;-53
2021/09/15 08:05:57;;;;;;;1.17;0.50;;;;;;;16.60;49.44;100054.17;1718028;82;21057;-53
2021/09/15 08:08:24;;;;;;;0.60;0.40;;;;;;;16.62;49.23;100058.19;1723676;82;21444;-54
2021/09/15 08:10:52;;;;;;;1.12;0.40;;;;;;;16.68;49.91;100055.04;1719177;82;21421;-53
2021/09/15 08:13:20;;;;;;;0.72;0.40;;;;;;;16.77;50.19;100059.84;1720342;82;21032;-52
2021/09/15 08:15:47;;;;;;;0.70;0.45;;;;;;;16.86;49.83;100056.49;1721909;82;21077;-53
2021/09/15 08:18:13;;;;;;;1.98;0.42;;;;;;;16.94;49.83;100054.59;1716261;80;21339;-51
2021/09/15 08:20:45;;;;;;;1.05;0.50;;;;;;;16.98;49.53;100046.14;1720636;82;21371;-53
2021/09/15 08:23:07;;;;;;;0.80;0.50;;;;;;;17.04;48.98;100043.47;1730754;80;21122;-55
2021/09/15 08:25:34;;;;;;;0.50;0.45;;;;;;;17.08;49.42;100045.50;1737785;80;20939;-51
2021/09/15 08:28:00;;;;;;;2.58;0.50;;;;;;;17.12;49.06;100053.80;1735653;80;21109;-54
2021/09/15 08:30:26;;;;;;;2.15;0.57;;;;;;;17.14;48.66;100050.01;1732822;80;21118;-52
2021/09/15 08:32:53;;;;;;;1.75;0.50;;;;;;;17.16;48.80;100050.78;1734051;80;21568;-55
2021/09/15 08:35:21;;;;;;;2.60;0.60;;;;;;;17.19;48.62;100047.81;1740369;80;21288;-54
2021/09/15 08:37:48;;;;;;;3.05;0.57;;;;;;;17.20;48.07;100050.92;1739538;80;21401;-52
2021/09/15 08:40:15;;;;;;;0.90;0.42;;;;;;;17.19;48.33;100047.81;1737503;80;20923;-53
2021/09/15 08:42:41;;;;;;;2.20;0.60;;;;;;;17.23;48.53;100050.72;1736276;80;21510;-52
2021/09/15 08:45:10;;;;;;;1.72;0.40;;;;;;;17.27;48.82;100038.62;1733633;80;21054;-53
2021/09/15 08:47:37;;;;;;;0.85;0.40;;;;;;;17.36;48.92;100035.73;1736463;80;21088;-54
2021/09/15 08:50:05;;;;;;;0.37;0.30;;;;;;;17.41;48.60;100039.02;1722678;80;20912;-54
2021/09/15 08:52:32;;;;;;;0.82;0.40;;;;;;;17.46;48.30;100039.54;1736988;80;21042;-52
2021/09/15 08:54:58;;;;;;;1.17;0.40;;;;;;;17.49;47.76;100033.02;1731159;80;21066;-53
2021/09/15 08:57:24;;;;;;;1.22;0.40;;;;;;;17.51;47.55;100037.87;1731940;80;21102;-54
2021/09/15 08:59:50;;;;;;;2.42;0.40;;;;;;;17.51;47.30;100032.42;1730445;80;22681;-55
2021/09/15 09:02:17;;;;;;;1.20;0.40;;;;;;;17.54;48.08;100030.82;1733164;80;21539;-54
2021/09/15 09:04:58;;;;;;;0.62;0.45;;;;;;;17.56;47.31;100031.59;1733851;80;21053;-54
2021/09/15 09:07:25;;;;;;;0.72;0.40;;;;;;;17.60;47.05;100027.67;1738412;80;20947;-53
2021/09/15 09:09:53;;;;;;;0.95;0.42;;;;;;;17.60;47.00;100028.55;1736269;80;21034;-52
2021/09/15 09:12:23;;;;;;;3.80;0.50;;;;;;;17.62;47.05;100033.40;1735834;80;21005;-53
2021/09/15 09:14:51;;;;;;;0.60;0.40;;;;;;;17.66;46.87;100030.84;1734971;80;20953;-54
2021/09/15 09:17:29;;;;;;;1.57;0.50;;;;;;;17.72;46.65;100043.13;1738232;80;20884;-54
2021/09/15 09:20:27;;;;;;;0.45;0.40;;;;;;;17.72;46.33;100037.20;1737061;80;20975;-53
2021/09/15 09:23:09;;;;;;;3.27;0.50;;;;;;;17.76;46.02;100034.64;1736322;80;21915;-51
2021/09/15 09:25:54;;;;;;;2.55;0.50;;;;;;;17.81;45.51;100025.25;1735810;80;21934;-54
2021/09/15 09:28:26;;;;;;;;;;;;;;;17.83;45.36;100031.45;1740425;80;20990;-54
2021/09/15 09:30:55;;;;;;;2.17;0.50;;;;;;;17.85;45.46;100030.37;1739429;80;20127;-53
2021/09/15 09:33:22;;;;;;;3.72;0.50;;;;;;;17.88;45.58;100020.59;1736058;80;20967;-53
2021/09/15 09:36:04;;;;;;;2.25;0.62;;;;;;;17.92;45.89;100018.03;1736830;80;20935;-54
2021/09/15 09:38:39;;;;;;;4.40;0.50;;;;;;;17.93;45.26;100019.78;1737076;80;23373;-54
2021/09/15 09:41:13;;;;;;;6.80;0.70;;;;;;;17.93;46.02;100016.19;1736857;80;20880;-53
2021/09/15 09:43:53;;;;;;;1.47;0.50;;;;;;;18.03;46.14;100015.88;1742093;80;20920;-54
2021/09/15 09:46:30;;;;;;;1.95;0.70;;;;;;;18.03;46.14;100015.88;1738946;80;21480;-52
2021/09/15 09:48:57;;;;;;;1.72;0.40;;;;;;;18.11;45.27;100010.23;1737464;80;20939;-53
2021/09/15 09:51:37;;;;;;;1.05;0.47;;;;;;;18.13;44.38;100006.02;1723946;80;21039;-53
2021/09/15 09:54:24;;;;;;;0.90;0.50;;;;;;;18.11;45.04;100010.23;1736633;80;20955;-52
2021/09/15 09:56:56;;;;;;;0.70;0.47;;;;;;;18.13;45.18;100001.44;1737533;80;20954;-54
2021/09/15 09:59:26;;;;;;;2.42;0.50;;;;;;;18.19;44.95;100000.61;1737957;80;20932;-54
2021/09/15 10:01:59;;;;;;;2.15;0.40;;;;;;;18.25;44.61;100001.02;1733084;80;21097;-54
2021/09/15 10:04:28;;;;;;;0.90;0.30;;;;;;;18.27;43.99;100000.90;1734679;80;22127;-54
2021/09/15 10:06:55;;;;;;;0.90;0.40;;;;;;;18.32;44.64;100002.77;1734034;80;21075;-53
2021/09/15 10:09:23;;;;;;;4.58;0.30;;;;;;;18.35;43.37;99990.28;1734064;80;21744;-54
2021/09/15 10:11:49;;;;;;;2.30;0.30;;;;;;;18.39;43.46;99988.55;1737488;80;21522;-54
2021/09/15 10:14:17;;;;;;;0.53;0.40;;;;;;;18.44;43.21;99985.49;1733280;80;21582;-54
2021/09/15 10:16:53;;;;;;;1.27;0.30;;;;;;;18.47;43.29;99993.41;1736398;80;21297;-53
2021/09/15 10:19:27;;;;;;;0.60;0.40;;;;;;;18.50;43.13;99993.19;1734933;80;21074;-51
2021/09/15 10:21:59;;;;;;;2.10;0.40;;;;;;;18.52;43.19;99992.09;1735585;80;21137;-53
2021/09/15 10:24:59;;;;;;;2.67;0.30;;;;;;;18.53;41.98;99982.06;1737135;80;21079;-55
2021/09/15 10:27:27;;;;;;;0.60;0.33;;;;;;;18.54;42.29;99978.35;1734793;80;21312;-54
2021/09/15 10:30:04;;;;;;;3.52;0.30;;;;;;;18.56;41.93;99972.75;1733957;80;22383;-55
2021/09/15 10:32:38;;;;;;;0.53;0.30;;;;;;;18.57;42.28;99976.77;1734922;80;21046;-56
2021/09/15 10:35:08;;;;;;;0.50;0.30;;;;;;;18.62;41.53;99971.84;1731177;80;21058;-55
2021/09/15 10:37:39;;;;;;;1.42;0.30;;;;;;;18.66;41.35;99969.72;1735587;80;21073;-55
2021/09/15 10:40:09;;;;;;;2.72;0.30;;;;;;;18.70;41.63;99962.56;1731818;80;21697;-54
2021/09/15 10:42:39;;;;;;;2.87;0.40;;;;;;;18.73;41.67;99967.75;1736731;80;21750;-55
2021/09/15 10:45:17;;;;;;;1.95;0.40;;;;;;;18.77;41.57;99968.40;1734927;80;21453;-53
2021/09/15 10:47:59;;;;;;;3.33;0.40;;;;;;;18.77;41.20;99962.45;1735784;80;21838;-54
2021/09/15 10:50:34;;;;;;;0.75;0.30;;;;;;;18.77;41.77;99959.72;1734139;80;21018;-53
2021/09/15 10:53:13;;;;;;;0.68;0.30;;;;;;;18.82;41.64;99965.67;1731817;80;20924;-53
2021/09/15 10:55:44;;;;;;;1.57;0.30;;;;;;;18.86;41.53;99969.91;1733987;80;22847;-55
2021/09/15 10:58:20;;;;;;;0.50;0.30;;;;;;;18.89;41.78;99951.92;1733726;80;21082;-55
2021/09/15 11:00:53;;;;;;;1.60;0.30;;;;;;;18.97;40.70;99946.38;1737052;80;21286;-53
2021/09/15 11:03:28;;;;;;;2.58;0.37;;;;;;;19.00;41.28;99944.25;1736547;80;21050;-54
2021/09/15 11:05:55;;;;;;;1.27;0.30;;;;;;;19.05;40.93;99949.36;1736308;80;20939;-53
2021/09/15 11:08:37;;;;;;;0.82;0.30;;;;;;;19.05;40.46;99944.77;1730212;80;21484;-54
2021/09/15 11:11:05;;;;;;;0.70;0.30;;;;;;;19.05;40.19;99946.14;1729976;80;21034;-54
2021/09/15 11:13:42;;;;;;;0.60;0.30;;;;;;;19.04;39.19;99940.80;1736544;80;21540;-54
2021/09/15 11:16:26;;;;;;;0.50;0.30;;;;;;;19.04;40.28;99932.61;1733528;80;21043;-54
2021/09/15 11:19:12;;;;;;;0.40;0.40;;;;;;;19.07;40.19;99928.25;1732688;80;21085;-55
2021/09/15 11:21:48;;;;;;;1.45;0.40;;;;;;;19.10;39.93;99922.56;1733453;80;21536;-53
2021/09/15 11:24:27;;;;;;;1.98;0.40;;;;;;;19.15;40.58;99928.50;1734345;80;21133;-54
2021/09/15 11:26:58;;;;;;;3.00;0.30;;;;;;;19.18;40.12;99926.91;1733475;80;21269;-54
2021/09/15 11:29:54;;;;;;;0.40;0.37;;;;;;;19.18;39.42;99918.72;1733844;80;21399;-54
2021/09/15 11:32:18;;;;;;;0.57;0.30;;;;;;;19.20;38.95;99924.92;1734423;80;22601;-54
2021/09/15 11:34:50;;;;;;;0.42;0.20;;;;;;;19.18;37.87;99915.49;1737035;80;21973;-54
2021/09/15 11:37:28;;;;;;;0.30;0.30;;;;;;;19.18;38.50;99911.89;1730725;80;21547;-55
2021/09/15 11:39:57;;;;;;;0.42;0.30;;;;;;;19.19;38.52;99915.00;1731218;80;21681;-53
2021/09/15 11:42:28;;;;;;;0.82;0.30;;;;;;;19.19;38.82;99917.23;1733763;80;21531;-54
2021/09/15 11:44:54;;;;;;;0.35;0.30;;;;;;;19.18;38.85;99910.53;1736933;80;20872;-52
2021/09/15 11:47:25;;;;;;;2.02;0.40;;;;;;;19.18;38.65;99910.53;1736584;80;21121;-54
2021/09/15 11:49:54;;;;;;;0.57;0.30;;;;;;;19.18;38.12;99903.71;1734431;80;21078;-54
2021/09/15 11:52:22;;;;;;;0.50;0.30;;;;;;;19.17;38.32;99904.70;1735305;80;21109;-54
2021/09/15 11:54:51;;;;;;;0.50;0.35;;;;;;;19.18;38.64;99900.98;1730597;80;21046;-54